Skip Navigation Links
NOAA logo - Click to go to the NOAA homepage
NOAA's National Weather Service
Alaska Aviation Weather Unit
  NWS logo - Click to go to the NWS homepage
Left Navbar Graphic     21 AKDT = 05 GMT

   
NOAA is celebrating 200 years of science, service, and stewardship. Visit the NOAA 200th celebration Web site to learn more.
USA.gov is the U.S. Government's official Web portal to all Federal, state and local government Web resources and services.
Facebook
NWS on Facebook

Important Change Regarding the AAWU Web Presence

 

Over the last several months, the AAWU has been working to navigate its webpages to a nationally supported server. Security, as well as other needs, have necessitated the change.  In the process, we have made an effort to enhance the functionality of our website, as well as some of our products. As of June 27, 2017, aawu.arh.noaa.gov will be discontinued. The new AAWU web address is weather.gov/aawu. It is now live and will run in-parallel with the old site until it is discontinued. Please send any feedback or questions regarding the new webpages to nws.ar.aawu.webauthors@noaa.gov.  Thank you for your patience during this time of transition.
AAWU Home :: Display TAF Add Bookmark
TAF PACV 242320Z 2500/2524 VRB05KT P6SM VCSH SCT045 BKN060=

METAR PACV 242353Z 23007KT 10SM BKN060 BKN080 OVC100 17/05 A3009 RMK AO2 SLP188 60000 T01670050 10167 20139 56002 $= METAR PACV 250053Z 24005KT 10SM BKN060 BKN080 OVC100 16/06 A3009 RMK AO2 SLP188 T01560056 $= METAR PACV 250153Z 23006KT 10SM BKN060 BKN075 OVC100 14/08 A3009 RMK AO2 SLP189 T01440078 $= METAR PACV 250253Z 27004KT 10SM -RA OVC060 14/10 A3009 RMK AO2 RAB50 SLP191 P0000 60000 T01390100 53002 $= SPECI PACV 250334Z 27005KT 1/4SM R27/P6000FT HZ OVC065 13/10 A3009 RMK AO2 RAE18 P0001 T01330100 $= SPECI PACV 250343Z 27005KT 2 1/2SM HZ OVC065 13/10 A3009 RMK AO2 RAE18 P0001 T01330100 $= SPECI PACV 250350Z 28004KT 10SM OVC070 13/10 A3009 RMK AO2 RAE18 P0001 $= METAR PACV 250353Z 27003KT 10SM OVC070 13/10 A3009 RMK AO2 RAE18 SLP190 P0001 T01330100 $= METAR PACV 250453Z 27005KT 10SM BKN075 OVC090 12/10 A3009 RMK AO2 RAB05E38 SLP191 P0000 T01220100 $=
 Alaska TAF Map

NOAA's National Weather Service
Alaska Aviation Weather Unit
6930 Sand Lake Road
Anchorage, AK 99502-1845
Disclaimer
Credits
Glossary
Privacy Policy
About Us
Career Opportunities
Contact AAWU Internet Services Site last modified: April, 17th 2012